Nearby METAR Reports

 

KBAX - Bad Axe, Michigan, USA
Distance from station: ESE 22mi, 35km
Updated: Thu, 21-Sep-2017 12:54am EDT
Clear
Clear
 Wind from calm
Wind: Calm
Temperature: 66°F , 19°C
Dew Point: 63°F , 17°C
Humidity: 88%
Barometer: 30.05 inHg , 1017.6 hPa
Clouds: Clear
Visibility: 10 miles , 16 km
2017/09/21 04:54 KBAX 210454Z AUTO 00000KT 10SM CLR 19/17 A3005 RMK AO2 T01900172
KFNT - Flint, Michigan, USA
Distance from station: SSW 68mi, 109km
Updated: Thu, 21-Sep-2017 12:53am EDT
Clear
Clear
 Wind from SSW
Wind: SSW 3 mph , 6 km/h
Temperature: 68°F , 20°C
Dew Point: 64°F , 18°C
Humidity: 88%
Barometer: 30.04 inHg , 1017.3 hPa
Clouds: Clear
Visibility: 10 miles , 16 km
2017/09/21 04:53 KFNT 210453Z AUTO 21003KT 10SM CLR 20/18 A3004 RMK AO2 SLP170 T02000183 402830161
KMBS - Saginaw, Michigan, USA
Distance from station: SW 44mi, 70km
Updated: Thu, 21-Sep-2017 12:53am EDT
Clear
Clear
 Wind from S
Wind: S 6 mph , 9 km/h
Temperature: 72°F , 22°C
Dew Point: 66°F , 19°C
Humidity: 83%
Barometer: 30.03 inHg , 1016.9 hPa
Clouds: Clear
Visibility: 10 miles , 16 km
2017/09/21 04:53 KMBS 210453Z 17005KT 10SM CLR 22/19 A3003 RMK AO2 SLP166 T02170194 402780189
 
KDTW - Detroit/Wayne, Michigan, USA
Distance from station: SSE 117mi, 188km
Updated: Thu, 21-Sep-2017 12:53am EDT
Mist, Clear
Mist, Clear
 Wind from calm
Wind: Calm
Temperature: 68°F , 20°C
Dew Point: 66°F , 19°C
Humidity: 94%
Barometer: 30.04 inHg , 1017.3 hPa
Summary: Mist
Clouds: Clear
Visibility: 5 miles , 8 km
2017/09/21 04:53 KDTW 210453Z 00000KT 5SM BR CLR 20/19 A3004 RMK AO2 SLP170 T02000194 402780178 $
KP58 - Port Hope, Michigan, USA
Distance from station: ENE 30mi, 48km
Updated: Wed, 20-Sep-2017 9:51pm EDT
NOT Current

 Wind from SSE
Wind: SSE 7 mph , 11 km/h
Temperature: 70°F , 21°C
Dew Point: 64°F , 18°C
Humidity: 83%
Barometer: 29.97 inHg , 1014.9 hPa
2017/09/21 01:51 KP58 210151Z AUTO 16006KT 21/18 A2997 RMK AO1 SLP142 T02060183
KCFS - Caro/Tuscola, Michigan, USA
Distance from station: S 31mi, 50km
Updated: Thu, 21-Sep-2017 12:55am EDT
Mist, Clear
Mist, Clear
 Wind from calm
Wind: Calm
Temperature: 63°F , 17°C
Dew Point: 61°F , 16°C
Humidity: 94%
Barometer: 30.03 inHg , 1016.9 hPa
Summary: Mist
Clouds: Clear
Visibility: 5 miles , 8 km
2017/09/21 04:55 KCFS 210455Z AUTO 00000KT 5SM BR CLR 17/16 A3003 RMK AO2 T01710160
 
KPHN - Port Huron, Michigan, USA
Distance from station: SSE 81mi, 131km
Updated: Thu, 21-Sep-2017 12:56am EDT
Fog, Mostly cloudy
Fog, Mostly cloudy
 Wind from calm
Wind: Calm
Temperature: 63°F , 17°C
Dew Point: 61°F , 16°C
Humidity: 94%
Barometer: 30.04 inHg , 1017.3 hPa
Summary: Fog
Clouds: Mostly cloudy
Visibility: 1/4 mile , 2 km
Cloud details: Mostly cloudy 300 ft
2017/09/21 04:56 KPHN 210456Z AUTO 00000KT 1/4SM FG BKN003 17/16 A3004 RMK AO2
KPTK - Pontiac, Michigan, USA
Distance from station: S 86mi, 138km
Updated: Thu, 21-Sep-2017 12:53am EDT
Clear
Clear
 Wind from calm
Wind: Calm
Temperature: 66°F , 19°C
Dew Point: 66°F , 19°C
Humidity: 100%
Barometer: 30.04 inHg , 1017.3 hPa
Clouds: Clear
Visibility: 7 miles , 11 km
2017/09/21 04:53 KPTK 210453Z AUTO 00000KT 7SM CLR 19/19 A3004 RMK AO2 SLP167 T01940189 402720178
KMTC - Selfridge Angb, Michigan, USA
Distance from station: SSE 94mi, 151km
Updated: Thu, 21-Sep-2017 12:58am EDT
Mist, Clear
Mist, Clear
 Wind from calm
Wind: Calm
Temperature: 64°F , 18°C
Dew Point: 64°F , 18°C
Humidity: 100%
Barometer: 30.03 inHg , 1016.9 hPa
Summary: Mist
Clouds: Clear
Visibility: 2 1/2 miles , 2 km
2017/09/21 04:58 KMTC 210458Z AUTO 00000KT 2 1/2SM R19/4500FT BR CLR 18/18 A3003 RMK AO2 VIS 1/2V2 1/2 VIS 1/4 RWY01 SLP171 $